Time;durP1;ratioP1;P1;durP2;ratioP2;P2;SDS_P1;SDS_P2;PMS_P1;PMS_P2;Temp;Humidity;BMP_temperature;BMP_pressure;BME280_temperature;BME280_humidity;BME280_pressure;Samples;Min_cycle;Max_cycle;Signal;HPM_P1;HPM_P2
2022/04/26 03:36:35;;;;;;;6.43;5.80;;;9.70;99.90;;;;;;5025942;28;20723;-75
2022/04/26 03:39:02;;;;;;;8.87;7.40;;;9.60;99.90;;;;;;5031927;28;20227;-76
2022/04/26 03:41:29;;;;;;;10.00;8.20;;;9.50;99.90;;;;;;5023605;28;20203;-76
2022/04/26 03:43:56;;;;;;;10.73;6.80;;;9.50;99.90;;;;;;5032331;28;20200;-77
2022/04/26 03:46:23;;;;;;;10.07;7.30;;;9.60;99.90;;;;;;5031452;28;20277;-74
2022/04/26 03:48:52;;;;;;;9.23;7.43;;;9.60;99.90;;;;;;5032195;28;20207;-75
2022/04/26 03:51:19;;;;;;;9.73;7.90;;;9.60;99.90;;;;;;5031431;28;20207;-75
2022/04/26 03:53:46;;;;;;;9.13;8.00;;;9.60;99.90;;;;;;5032190;28;20674;-74
2022/04/26 03:56:13;;;;;;;10.80;7.83;;;9.60;99.90;;;;;;5032047;28;20210;-77
2022/04/26 03:58:40;;;;;;;9.67;8.17;;;9.60;99.90;;;;;;5031814;28;20219;-78
2022/04/26 04:01:08;;;;;;;9.47;8.13;;;9.70;99.90;;;;;;5030175;28;20196;-81
2022/04/26 04:03:38;;;;;;;9.97;8.13;;;9.60;99.90;;;;;;5031946;28;20200;-78
2022/04/26 04:06:06;;;;;;;10.17;7.30;;;9.60;99.90;;;;;;5032578;28;20206;-75
2022/04/26 04:08:33;;;;;;;7.90;7.03;;;9.60;99.90;;;;;;5031267;28;20284;-75
2022/04/26 04:11:00;;;;;;;9.87;8.43;;;9.60;99.90;;;;;;5031850;28;20250;-75
2022/04/26 04:13:28;;;;;;;8.33;6.93;;;9.50;99.90;;;;;;5023238;28;20215;-76
2022/04/26 04:15:55;;;;;;;8.40;7.57;;;9.40;99.90;;;;;;5030792;28;20209;-79
2022/04/26 04:21:08;;;;;;;10.17;7.47;;;9.40;99.90;;;;;;5031242;28;20214;-77
2022/04/26 04:23:38;;;;;;;9.63;7.60;;;9.30;99.90;;;;;;5030047;28;20674;-76
2022/04/26 04:26:05;;;;;;;9.00;8.10;;;9.40;99.90;;;;;;5030734;28;20211;-78
2022/04/26 04:28:33;;;;;;;9.90;8.70;;;9.40;99.90;;;;;;5030089;28;20283;-75
2022/04/26 04:31:01;;;;;;;10.80;7.20;;;9.40;99.90;;;;;;5030795;28;20266;-77
2022/04/26 04:33:28;;;;;;;8.50;7.60;;;9.30;99.90;;;;;;5030999;28;20683;-78
2022/04/26 04:35:55;;;;;;;11.17;7.67;;;9.30;99.90;;;;;;5030767;28;20209;-80
2022/04/26 04:38:26;;;;;;;11.97;7.60;;;9.30;99.90;;;;;;5022033;28;20203;-77
2022/04/26 04:40:53;;;;;;;9.37;7.73;;;9.20;99.90;;;;;;5030681;28;20318;-76
2022/04/26 04:43:20;;;;;;;7.20;6.33;;;9.20;99.90;;;;;;5029912;28;20208;-79
2022/04/26 04:45:48;;;;;;;8.23;7.33;;;9.10;99.90;;;;;;5030207;28;20207;-76
2022/04/26 04:48:15;;;;;;;9.40;7.37;;;9.10;99.90;;;;;;5029995;28;20651;-77
2022/04/26 04:50:42;;;;;;;8.90;7.60;;;9.10;99.90;;;;;;5030204;28;20591;-76
2022/04/26 04:53:10;;;;;;;7.00;6.30;;;9.10;99.90;;;;;;5028967;28;20554;-74
2022/04/26 04:55:40;;;;;;;8.80;7.23;;;9.10;99.90;;;;;;5030293;28;20714;-74
2022/04/26 04:58:07;;;;;;;8.77;7.07;;;9.10;99.90;;;;;;5030725;28;20203;-76
2022/04/26 05:00:34;;;;;;;9.37;7.03;;;9.00;99.90;;;;;;5022742;28;20773;-77
2022/04/26 05:03:01;;;;;;;7.33;6.63;;;9.10;99.90;;;;;;5030615;28;20207;-77
2022/04/26 05:05:28;;;;;;;8.90;6.80;;;9.10;99.90;;;;;;5030129;28;20207;-78
2022/04/26 05:07:56;;;;;;;10.33;7.87;;;9.10;99.90;;;;;;5030628;28;20269;-76
2022/04/26 05:10:23;;;;;;;8.80;6.47;;;9.10;99.90;;;;;;5030316;28;20325;-77
2022/04/26 05:12:51;;;;;;;9.50;7.63;;;9.10;99.90;;;;;;5030698;28;20258;-76
2022/04/26 05:15:18;;;;;;;14.73;7.97;;;9.10;99.90;;;;;;5029971;28;20671;-76
2022/04/26 05:17:45;;;;;;;10.10;7.73;;;9.10;99.90;;;;;;5030792;28;20756;-76
2022/04/26 05:20:12;;;;;;;7.97;7.27;;;9.10;99.90;;;;;;5029799;28;20714;-77
2022/04/26 05:25:26;;;;;;;13.87;8.10;;;9.20;99.90;;;;;;5029485;28;20210;-76
2022/04/26 05:27:54;;;;;;;12.47;7.67;;;9.20;99.90;;;;;;5030466;28;20248;-76
2022/04/26 05:30:21;;;;;;;7.93;7.13;;;9.10;99.90;;;;;;5029738;28;20631;-75
2022/04/26 05:32:48;;;;;;;10.63;8.33;;;9.20;99.90;;;;;;5022319;28;20207;-74
2022/04/26 05:35:15;;;;;;;8.93;7.67;;;9.20;99.90;;;;;;5029887;28;20632;-79
2022/04/26 05:37:42;;;;;;;9.43;8.50;;;9.20;99.90;;;;;;5029711;28;20603;-76
2022/04/26 05:40:10;;;;;;;8.70;7.60;;;9.30;99.90;;;;;;5029620;28;20227;-75
2022/04/26 05:42:38;;;;;;;11.17;8.37;;;9.40;99.90;;;;;;5029820;28;20204;-75
2022/04/26 05:45:08;;;;;;;8.47;7.57;;;9.40;99.90;;;;;;5030238;28;20295;-74
2022/04/26 05:47:35;;;;;;;8.77;7.87;;;9.50;99.90;;;;;;5030208;28;20618;-74
2022/04/26 05:50:02;;;;;;;8.20;7.13;;;9.60;99.90;;;;;;5030141;28;20234;-74
2022/04/26 05:52:29;;;;;;;10.47;7.30;;;9.60;99.90;;;;;;5029520;28;20200;-73
2022/04/26 05:54:56;;;;;;;10.13;7.37;;;9.60;99.90;;;;;;5029797;28;20572;-72
2022/04/26 05:57:23;;;;;;;12.87;7.80;;;9.70;99.90;;;;;;5029791;28;20290;-76
2022/04/26 05:59:50;;;;;;;9.63;8.07;;;9.80;99.90;;;;;;5029802;28;20227;-76
2022/04/26 06:02:18;;;;;;;8.53;7.63;;;9.80;99.90;;;;;;5030265;28;20245;-76
2022/04/26 06:04:45;;;;;;;8.80;6.87;;;9.90;99.90;;;;;;5030968;28;20207;-76
2022/04/26 06:07:12;;;;;;;9.17;7.77;;;10.00;99.90;;;;;;5030286;28;20215;-81
2022/04/26 06:09:40;;;;;;;8.60;7.67;;;10.00;99.90;;;;;;5029572;28;20262;-77
2022/04/26 06:12:08;;;;;;;7.73;7.03;;;10.00;99.90;;;;;;5030188;28;20196;-80
2022/04/26 06:14:35;;;;;;;8.17;7.33;;;9.90;99.90;;;;;;5026927;28;20262;-74
2022/04/26 06:17:02;;;;;;;7.73;6.63;;;10.00;99.90;;;;;;5029685;28;20203;-75
2022/04/26 06:19:31;;;;;;;8.67;7.77;;;10.00;99.90;;;;;;5029254;28;20289;-76
2022/04/26 06:21:58;;;;;;;7.90;7.10;;;10.20;99.90;;;;;;5028385;28;20628;-76
2022/04/26 06:24:25;;;;;;;7.13;6.43;;;10.40;99.90;;;;;;5023839;28;20487;-77
2022/04/26 06:26:52;;;;;;;9.70;7.23;;;10.40;99.90;;;;;;5017248;28;20211;-77
2022/04/26 06:29:19;;;;;;;8.90;7.90;;;10.40;99.90;;;;;;5027244;28;20204;-77
2022/04/26 06:31:47;;;;;;;12.07;7.17;;;10.60;99.90;;;;;;5028592;28;20199;-77
2022/04/26 06:34:14;;;;;;;7.23;6.13;;;10.70;99.90;;;;;;5027596;28;20687;-74
2022/04/26 06:36:43;;;;;;;7.90;6.57;;;10.80;99.90;;;;;;5026146;28;20212;-76
2022/04/26 06:39:10;;;;;;;9.10;6.67;;;10.80;99.90;;;;;;5023611;28;20269;-74
2022/04/26 06:41:37;;;;;;;8.50;7.60;;;10.80;99.90;;;;;;5028146;28;20687;-73
2022/04/26 06:44:04;;;;;;;8.73;7.13;;;11.00;99.90;;;;;;5026881;28;20213;-72
2022/04/26 06:46:31;;;;;;;7.87;7.13;;;11.30;99.90;;;;;;5031053;28;20207;-73
2022/04/26 06:49:00;;;;;;;14.63;8.57;;;11.40;99.90;;;;;;5032649;28;20261;-73
2022/04/26 06:51:27;;;;;;;8.53;7.47;;;11.30;99.90;;;;;;5031530;28;20215;-73
2022/04/26 06:53:55;;;;;;;7.53;5.97;;;11.40;99.90;;;;;;5032769;28;20258;-73
2022/04/26 06:56:22;;;;;;;9.70;7.00;;;11.50;99.90;;;;;;5031850;28;20206;-74
2022/04/26 06:58:49;;;;;;;8.27;7.17;;;11.60;99.90;;;;;;5031260;28;20269;-73
2022/04/26 07:01:16;;;;;;;10.07;7.10;;;11.70;99.90;;;;;;5030044;28;20232;-73
2022/04/26 07:03:43;;;;;;;8.97;6.90;;;11.80;99.90;;;;;;5030897;28;20667;-73
2022/04/26 07:06:10;;;;;;;9.40;6.77;;;11.90;99.90;;;;;;5031712;28;20237;-73
2022/04/26 07:08:37;;;;;;;19.40;8.50;;;12.00;99.90;;;;;;5032716;28;20215;-73
2022/04/26 07:11:06;;;;;;;9.83;6.60;;;12.00;99.90;;;;;;5032902;28;20204;-73
2022/04/26 07:13:33;;;;;;;9.77;7.33;;;12.20;99.90;;;;;;5026550;28;20580;-73
2022/04/26 07:16:00;;;;;;;7.77;7.00;;;12.20;99.90;;;;;;5032611;28;20626;-73
2022/04/26 07:18:27;;;;;;;8.20;6.33;;;12.50;99.90;;;;;;5031722;28;20278;-74
2022/04/26 07:20:54;;;;;;;10.20;7.23;;;12.90;99.90;;;;;;5031458;28;20289;-74
2022/04/26 07:23:21;;;;;;;8.40;6.27;;;13.10;99.90;;;;;;5024527;28;20211;-73
2022/04/26 07:25:48;;;;;;;9.07;7.80;;;13.00;99.90;;;;;;5032805;28;20262;-73
2022/04/26 07:28:18;;;;;;;8.87;6.73;;;12.90;99.90;;;;;;5031153;28;20663;-73
2022/04/26 07:30:46;;;;;;;10.43;7.00;;;13.10;99.90;;;;;;5033109;28;20207;-73
2022/04/26 07:35:57;;;;;;;8.07;6.50;;;14.20;99.90;;;;;;5032516;28;20206;-72
2022/04/26 07:38:24;;;;;;;8.95;6.63;;;13.60;99.90;;;;;;5030347;28;20243;-72
2022/04/26 07:40:51;;;;;;;10.30;7.03;;;13.60;99.90;;;;;;5027167;28;20752;-72
2022/04/26 07:43:21;;;;;;;8.35;6.55;;;14.00;99.90;;;;;;5031846;28;20635;-82
2022/04/26 07:45:48;;;;;;;8.75;6.18;;;14.60;99.90;;;;;;5023341;28;20222;-77
2022/04/26 07:48:16;;;;;;;9.45;7.13;;;15.00;99.90;;;;;;5029390;28;20678;-76
2022/04/26 07:50:46;;;;;;;6.93;5.53;;;14.80;99.90;;;;;;5029277;28;20211;-73
2022/04/26 07:53:13;;;;;;;9.65;6.85;;;14.50;99.90;;;;;;5029287;28;20209;-76
2022/04/26 07:55:40;;;;;;;8.45;7.47;;;14.50;99.90;;;;;;5030710;28;20628;-76
2022/04/26 07:58:08;;;;;;;8.95;7.47;;;14.50;99.90;;;;;;5030553;28;20250;-76
2022/04/26 08:00:36;;;;;;;9.05;6.95;;;14.80;99.90;;;;;;5030476;28;20227;-75
2022/04/26 08:03:05;;;;;;;10.73;6.53;;;14.70;99.90;;;;;;5032223;28;20261;-78
2022/04/26 08:05:32;;;;;;;15.32;7.25;;;14.70;99.90;;;;;;5027549;28;20200;-75
2022/04/26 08:07:59;;;;;;;12.30;6.95;;;14.90;99.90;;;;;;5031472;28;20254;-76
2022/04/26 08:10:26;;;;;;;7.68;6.85;;;15.00;99.90;;;;;;5031346;28;20235;-76
2022/04/26 08:12:53;;;;;;;8.35;6.60;;;15.20;99.90;;;;;;5031515;28;20208;-77
2022/04/26 08:15:20;;;;;;;8.93;6.07;;;15.40;99.90;;;;;;5023117;28;20702;-72
2022/04/26 08:17:49;;;;;;;7.15;5.75;;;15.60;99.90;;;;;;5029139;28;20207;-78
2022/04/26 08:20:16;;;;;;;11.02;5.97;;;15.50;99.90;;;;;;5027873;28;20654;-79
2022/04/26 08:22:44;;;;;;;7.13;5.40;;;15.60;99.90;;;;;;5030867;28;20215;-75
2022/04/26 08:27:57;;;;;;;7.55;5.07;;;16.00;99.90;;;;;;5031026;28;20218;-75
2022/04/26 08:30:24;;;;;;;7.07;5.72;;;16.20;99.90;;;;;;5024940;28;20249;-72
2022/04/26 08:32:52;;;;;;;7.35;5.15;;;16.40;99.90;;;;;;5030776;28;20257;-73
2022/04/26 08:35:22;;;;;;;7.30;5.20;;;16.30;99.90;;;;;;5027943;28;20207;-72
2022/04/26 08:37:49;;;;;;;6.93;4.30;;;16.60;99.90;;;;;;5030049;28;20273;-73
2022/04/26 08:40:16;;;;;;;5.07;4.57;;;16.70;99.90;;;;;;5029210;28;20234;-74
2022/04/26 08:42:46;;;;;;;7.22;5.47;;;16.50;99.90;;;;;;5030039;28;20667;-75
2022/04/26 08:45:14;;;;;;;5.25;4.75;;;16.80;99.90;;;;;;5030271;28;20227;-72
2022/04/26 08:53:16;;;;;;;6.63;4.10;;;17.30;99.90;;;;;;5030391;28;20586;-73
2022/04/26 08:55:44;;;;;;;6.57;3.60;;;17.70;99.90;;;;;;5030863;28;20261;-74
2022/04/26 08:58:13;;;;;;;5.28;4.20;;;17.60;99.90;;;;;;5030058;28;20204;-71
2022/04/26 09:01:00;;;;;;;4.93;3.63;;;17.80;99.90;;;;;;5030271;28;20305;-70
2022/04/26 09:03:31;;;;;;;5.78;3.13;;;18.00;99.90;;;;;;5030029;28;20277;-71
2022/04/26 09:06:07;;;;;;;4.35;3.30;;;18.20;99.90;;;;;;5030558;28;20204;-71
2022/04/26 09:08:34;;;;;;;6.45;3.70;;;18.70;99.90;;;;;;5023145;28;20285;-70
2022/04/26 09:11:02;;;;;;;5.70;3.10;;;19.40;99.90;;;;;;5030418;28;20230;-71
2022/04/26 09:13:39;;;;;;;4.47;3.22;;;20.00;99.90;;;;;;5021854;28;20557;-70
2022/04/26 09:16:15;;;;;;;4.05;3.72;;;19.40;99.90;;;;;;5030634;28;20677;-70
2022/04/26 09:18:51;;;;;;;4.53;3.00;;;19.00;99.90;;;;;;5024054;28;20211;-70
2022/04/26 09:21:20;;;;;;;6.68;3.30;;;19.20;99.90;;;;;;5030083;28;20235;-78
2022/04/26 09:23:48;;;;;;;4.25;3.47;;;18.70;99.90;;;;;;5030757;28;20213;-81
2022/04/26 09:26:16;;;;;;;6.72;2.85;;;18.90;99.90;;;;;;5026422;28;20692;-74
2022/04/26 09:28:46;;;;;;;5.75;3.40;;;19.30;99.90;;;;;;5030023;28;20258;-72
2022/04/26 09:31:21;;;;;;;5.60;3.72;;;19.50;99.90;;;;;;5029579;28;20294;-72
2022/04/26 09:33:49;;;;;;;4.60;3.03;;;19.70;99.90;;;;;;5030736;28;20210;-77
2022/04/26 09:36:18;;;;;;;4.20;3.30;;;20.10;99.90;;;;;;5029618;28;20249;-77
2022/04/26 09:38:52;;;;;;;3.97;3.17;;;20.40;99.90;;;;;;5030545;28;20214;-72
2022/04/26 09:41:20;;;;;;;4.35;2.97;;;20.80;99.90;;;;;;5029950;28;20226;-77
2022/04/26 09:43:57;;;;;;;5.43;2.83;;;20.60;99.90;;;;;;5030686;28;20199;-72
2022/04/26 09:46:24;;;;;;;3.92;3.33;;;20.20;99.90;;;;;;5030136;28;20283;-82
2022/04/26 09:48:53;;;;;;;6.38;3.28;;;20.80;99.90;;;;;;5030845;28;20196;-75
2022/04/26 09:51:21;;;;;;;3.05;2.85;;;21.00;99.90;;;;;;5030234;28;20290;-76
2022/04/26 09:53:48;;;;;;;3.80;3.28;;;21.20;99.90;;;;;;5031006;28;20239;-83
2022/04/26 09:56:16;;;;;;;4.35;3.05;;;21.00;99.90;;;;;;5028937;28;20624;-81
2022/04/26 09:58:44;;;;;;;2.85;2.55;;;21.40;99.90;;;;;;5029867;28;20211;-81
2022/04/26 10:01:14;;;;;;;3.15;2.10;;;21.40;99.90;;;;;;5026882;28;20251;-79
2022/04/26 10:03:44;;;;;;;5.03;2.55;;;22.00;99.90;;;;;;5025531;28;20216;-72
2022/04/26 10:06:16;;;;;;;3.20;2.90;;;22.00;99.90;;;;;;5029185;28;20316;-78
2022/04/26 10:08:43;;;;;;;4.20;2.53;;;23.20;99.90;;;;;;5029539;28;20223;-79
2022/04/26 10:11:10;;;;;;;3.83;2.72;;;25.00;99.90;;;;;;5029508;28;20310;-75
2022/04/26 10:13:42;;;;;;;3.58;2.45;;;26.10;99.90;;;;;;5025476;28;20470;-78
2022/04/26 10:16:11;;;;;;;4.05;2.60;;;26.30;99.90;;;;;;5035087;28;20210;-79
2022/04/26 10:18:43;;;;;;;4.20;2.60;;;24.80;99.90;;;;;;5029543;28;20337;-78
2022/04/26 10:21:10;;;;;;;2.83;2.47;;;24.50;99.90;;;;;;5031081;28;20310;-75
2022/04/26 10:24:15;;;;;;;5.25;3.10;;;24.20;99.90;;;;;;5033281;28;20285;-76
2022/04/26 10:26:43;;;;;;;4.55;2.20;;;23.40;99.90;;;;;;5031795;28;20257;-77
2022/04/26 10:29:17;;;;;;;2.90;2.45;;;25.00;99.90;;;;;;5032336;28;20254;-76
2022/04/26 10:31:46;;;;;;;3.95;2.72;;;24.70;99.90;;;;;;5033463;28;20210;-74
2022/04/26 10:34:26;;;;;;;2.70;2.50;;;23.10;99.90;;;;;;5033209;28;20290;-74
2022/04/26 10:36:54;;;;;;;2.58;2.35;;;21.80;99.90;;;;;;5033625;28;20651;-73
2022/04/26 10:39:35;;;;;;;4.30;3.53;;;21.50;99.90;;;;;;5033533;28;20206;-72
2022/04/26 10:42:06;;;;;;;4.43;2.55;;;21.60;99.90;;;;;;5033276;28;20232;-72
2022/04/26 10:44:40;;;;;;;2.70;2.50;;;21.80;99.90;;;;;;5033243;28;20203;-72
2022/04/26 10:47:28;;;;;;;4.53;2.13;;;22.10;99.90;;;;;;5026238;28;20559;-72
2022/04/26 10:49:58;;;;;;;2.25;2.05;;;21.80;99.90;;;;;;5033143;28;20757;-74
2022/04/26 10:52:45;;;;;;;2.03;1.80;;;21.60;99.90;;;;;;5032929;28;20195;-72
2022/04/26 10:55:14;;;;;;;3.47;2.70;;;21.60;99.90;;;;;;5032309;28;20214;-72
2022/04/26 10:57:43;;;;;;;2.38;1.80;;;21.60;99.90;;;;;;5030165;28;20716;-77
2022/04/26 11:00:16;;;;;;;4.13;2.10;;;21.70;99.90;;;;;;5023435;28;20307;-75
2022/04/26 11:02:45;;;;;;;4.45;2.67;;;21.60;99.90;;;;;;5030572;28;20223;-80
2022/04/26 11:05:14;;;;;;;3.63;3.00;;;21.60;99.90;;;;;;5031030;28;20253;-80
2022/04/26 11:07:42;;;;;;;4.03;2.05;;;22.00;99.90;;;;;;5035065;28;20220;-86
2022/04/26 11:10:10;;;;;;;2.53;2.33;;;21.80;99.90;;;;;;5031256;28;20323;-79
2022/04/26 11:12:39;;;;;;;2.53;2.05;;;21.50;99.90;;;;;;5031027;28;20663;-91
2022/04/26 11:15:08;;;;;;;3.50;2.40;;;21.50;99.90;;;;;;5028747;28;20210;-76
2022/04/26 11:17:38;;;;;;;3.15;2.10;;;21.80;99.90;;;;;;5033963;28;20207;-81
2022/04/26 11:20:09;;;;;;;3.03;2.72;;;21.90;99.90;;;;;;5032851;28;20640;-77
2022/04/26 11:22:44;;;;;;;3.13;2.83;;;21.80;99.90;;;;;;5033091;28;20280;-85
2022/04/26 11:28:03;;;;;;;4.22;2.42;;;22.10;99.90;;;;;;5032674;28;20262;-78
2022/04/26 11:30:32;;;;;;;2.92;2.17;;;21.90;99.90;;;;;;5032667;28;20254;-79
2022/04/26 11:33:02;;;;;;;2.08;1.90;;;22.00;99.90;;;;;;5032066;28;20752;-79
2022/04/26 11:35:30;;;;;;;2.88;2.35;;;22.10;99.90;;;;;;5032799;28;20199;-85
2022/04/26 11:37:59;;;;;;;2.55;1.48;;;21.90;99.90;;;;;;5032747;28;20207;-81
2022/04/26 11:40:28;;;;;;;4.53;1.90;;;21.80;99.90;;;;;;5032277;28;20741;-74
2022/04/26 11:42:56;;;;;;;3.08;2.03;;;22.20;99.90;;;;;;5032198;28;20235;-77
2022/04/26 11:45:28;;;;;;;3.00;1.50;;;22.20;99.90;;;;;;5032195;28;20207;-73
2022/04/26 11:47:56;;;;;;;1.52;1.42;;;22.30;99.90;;;;;;5032693;28;20211;-82
2022/04/26 11:50:26;;;;;;;3.63;1.80;;;22.40;99.90;;;;;;5030076;28;20286;-75
2022/04/26 11:52:59;;;;;;;2.35;1.42;;;22.60;99.90;;;;;;5032290;28;20211;-82
2022/04/26 11:55:28;;;;;;;1.65;1.55;;;22.60;99.90;;;;;;5019345;28;20675;-76
2022/04/26 11:58:07;;;;;;;3.15;2.20;;;22.50;99.90;;;;;;5029947;28;20258;-77
2022/04/26 12:00:34;;;;;;;1.90;1.80;;;22.20;99.90;;;;;;5020386;28;20283;-77
2022/04/26 12:03:02;;;;;;;2.13;1.92;;;22.30;99.90;;;;;;5023784;28;20316;-78
2022/04/26 12:05:37;;;;;;;1.70;1.60;;;22.40;99.90;;;;;;5027748;28;20667;-77
2022/04/26 12:08:08;;;;;;;3.25;1.50;;;21.90;99.90;;;;;;5027205;28;20211;-75
2022/04/26 12:10:35;;;;;;;2.00;1.80;;;22.00;99.90;;;;;;5030529;28;20199;-76
2022/04/26 12:13:05;;;;;;;4.60;2.35;;;22.10;99.90;;;;;;5030802;28;20269;-76
2022/04/26 12:15:34;;;;;;;2.17;1.48;;;22.20;99.90;;;;;;5019291;28;20290;-75
2022/04/26 12:18:13;;;;;;;2.33;1.98;;;22.50;99.90;;;;;;5028210;28;20698;-74
2022/04/26 12:21:00;;;;;;;3.72;1.50;;;22.60;99.90;;;;;;5031318;28;20215;-76
2022/04/26 12:23:28;;;;;;;3.13;1.65;;;22.60;99.90;;;;;;5030053;28;20294;-73
2022/04/26 12:25:56;;;;;;;1.52;1.42;;;22.50;99.90;;;;;;5031684;28;20265;-75
2022/04/26 12:28:23;;;;;;;1.92;1.80;;;22.70;99.90;;;;;;5031030;28;20211;-75
2022/04/26 12:30:50;;;;;;;3.95;1.80;;;22.90;99.90;;;;;;5030058;28;20207;-74
2022/04/26 12:33:31;;;;;;;3.55;2.33;;;22.90;99.90;;;;;;5029131;28;20269;-74
2022/04/26 12:36:05;;;;;;;3.25;1.63;;;22.90;99.90;;;;;;5026720;28;20600;-78
2022/04/26 12:38:46;;;;;;;2.17;1.50;;;23.00;99.90;;;;;;5024722;28;20250;-79
2022/04/26 12:41:13;;;;;;;2.00;1.73;;;22.90;99.90;;;;;;5030331;28;20211;-77
2022/04/26 12:43:40;;;;;;;2.55;1.67;;;22.80;99.90;;;;;;5030799;28;20207;-78
2022/04/26 12:46:08;;;;;;;2.55;1.88;;;22.50;99.90;;;;;;5030865;28;20208;-78
2022/04/26 12:51:25;;;;;;;1.83;1.42;;;22.80;99.90;;;;;;5029813;28;20269;-80
2022/04/26 12:53:53;;;;;;;1.35;1.25;;;23.00;99.90;;;;;;5030805;28;20211;-78
2022/04/26 12:56:21;;;;;;;1.40;1.25;;;23.10;99.90;;;;;;5027427;28;20691;-78
2022/04/26 12:58:50;;;;;;;1.83;1.30;;;22.80;99.90;;;;;;5025948;28;20218;-80
2022/04/26 13:01:18;;;;;;;1.75;1.40;;;22.80;99.90;;;;;;5029922;28;20212;-79
2022/04/26 13:03:47;;;;;;;2.42;2.22;;;22.90;99.90;;;;;;5030074;28;20679;-77
2022/04/26 13:06:16;;;;;;;3.35;1.80;;;22.80;99.90;;;;;;5029956;28;20206;-73
2022/04/26 13:08:46;;;;;;;2.05;1.85;;;22.70;99.90;;;;;;5023167;28;20207;-74
2022/04/26 13:11:17;;;;;;;2.75;1.85;;;23.10;99.90;;;;;;5030356;28;20294;-73
2022/04/26 13:13:46;;;;;;;1.85;1.63;;;22.70;99.90;;;;;;5023168;28;20196;-75
2022/04/26 13:16:13;;;;;;;1.98;1.50;;;22.60;99.90;;;;;;5030412;28;20200;-74
2022/04/26 13:18:40;;;;;;;3.17;1.52;;;22.60;99.90;;;;;;5029700;28;20196;-75
2022/04/26 13:21:07;;;;;;;2.33;1.40;;;22.90;99.90;;;;;;5029421;28;20250;-77
2022/04/26 13:23:34;;;;;;;2.00;1.38;;;22.60;99.90;;;;;;5029855;28;20231;-74
2022/04/26 13:26:03;;;;;;;1.92;1.02;;;22.60;99.90;;;;;;5030577;28;20199;-73
2022/04/26 13:28:30;;;;;;;1.73;1.38;;;22.90;99.90;;;;;;5029674;28;20195;-73
2022/04/26 13:30:57;;;;;;;2.20;1.58;;;23.30;99.90;;;;;;5030758;28;20203;-83
2022/04/26 13:33:24;;;;;;;3.53;1.95;;;23.20;99.90;;;;;;5030159;28;20294;-77
2022/04/26 13:35:51;;;;;;;3.28;1.95;;;23.20;99.90;;;;;;5029965;28;20200;-73
2022/04/26 13:38:20;;;;;;;3.38;1.63;;;22.80;99.90;;;;;;5029567;28;20647;-75
2022/04/26 13:40:48;;;;;;;3.17;1.60;;;23.00;99.90;;;;;;5029744;28;20670;-77
2022/04/26 13:43:18;;;;;;;2.03;1.42;;;23.30;99.90;;;;;;5027403;28;20234;-74
2022/04/26 13:45:45;;;;;;;2.58;1.85;;;23.10;99.90;;;;;;5024568;28;20687;-77
2022/04/26 13:48:12;;;;;;;2.63;1.90;;;23.10;99.90;;;;;;5029346;28;20258;-75
2022/04/26 13:50:39;;;;;;;2.20;1.63;;;23.30;99.90;;;;;;5028988;28;20744;-74
2022/04/26 13:53:07;;;;;;;4.57;1.88;;;23.20;99.90;;;;;;5029875;28;20566;-75
2022/04/26 13:55:34;;;;;;;1.95;1.60;;;23.40;99.90;;;;;;5032230;28;20663;-73
2022/04/26 13:58:03;;;;;;;6.55;1.63;;;23.40;99.90;;;;;;5034273;28;20203;-73
2022/04/26 14:00:34;;;;;;;3.17;1.50;;;23.40;99.90;;;;;;5033076;28;20670;-72
2022/04/26 14:03:01;;;;;;;2.78;2.38;;;23.60;99.90;;;;;;5033632;28;20316;-72
2022/04/26 14:05:28;;;;;;;2.00;1.35;;;23.70;99.90;;;;;;5034040;28;20663;-72
2022/04/26 14:07:55;;;;;;;6.13;1.92;;;23.50;99.90;;;;;;5026269;28;20211;-73
2022/04/26 14:10:22;;;;;;;1.67;1.55;;;23.40;99.90;;;;;;5033402;28;20196;-74
2022/04/26 14:12:49;;;;;;;2.90;1.65;;;23.60;99.90;;;;;;5033484;28;20215;-74
2022/04/26 14:23:36;;;;;;;3.42;1.73;;;23.50;99.90;;;;;;5033672;28;20728;-73
2022/04/26 14:26:05;;;;;;;1.38;1.27;;;23.20;99.90;;;;;;5033852;28;20230;-80
2022/04/26 14:28:33;;;;;;;5.07;0.85;;;23.40;99.90;;;;;;5033285;28;20279;-74
2022/04/26 14:31:00;;;;;;;3.70;1.63;;;23.50;99.90;;;;;;5033628;28;20290;-74
2022/04/26 14:33:28;;;;;;;2.03;1.65;;;23.60;99.90;;;;;;5033755;28;20658;-75
2022/04/26 14:35:55;;;;;;;3.38;1.17;;;23.60;99.90;;;;;;5034521;28;20254;-74
2022/04/26 14:38:22;;;;;;;2.80;1.10;;;23.60;99.90;;;;;;5033751;28;20244;-76
2022/04/26 14:40:50;;;;;;;3.05;1.33;;;23.60;99.90;;;;;;5034098;28;20207;-74
2022/04/26 14:43:17;;;;;;;2.35;1.40;;;23.80;99.90;;;;;;5033531;28;20338;-78
2022/04/26 14:45:45;;;;;;;2.28;1.00;;;23.60;99.90;;;;;;5032987;28;20203;-78
2022/04/26 14:48:14;;;;;;;3.70;1.20;;;23.70;99.90;;;;;;5032619;28;20207;-73
2022/04/26 14:50:44;;;;;;;3.13;1.35;;;23.90;99.90;;;;;;5033371;28;20204;-81
2022/04/26 14:53:11;;;;;;;1.75;1.35;;;23.60;99.90;;;;;;5032662;28;20590;-73
2022/04/26 14:55:38;;;;;;;6.65;1.90;;;23.70;99.90;;;;;;5033558;28;20196;-76
2022/04/26 14:58:06;;;;;;;2.45;1.10;;;23.70;99.90;;;;;;5032787;28;20755;-75
2022/04/26 15:00:35;;;;;;;1.20;1.08;;;23.40;99.90;;;;;;5033052;28;20305;-74
2022/04/26 15:03:02;;;;;;;2.33;1.55;;;23.40;99.90;;;;;;5032588;28;20243;-73
2022/04/26 15:05:29;;;;;;;2.33;1.40;;;23.60;99.90;;;;;;5032794;28;20266;-82
2022/04/26 15:10:47;;;;;;;1.63;1.20;;;23.50;99.90;;;;;;4975063;28;20212;-88
2022/04/26 15:18:43;;;;;;;1.33;1.23;;;23.90;99.90;;;;;;5028068;28;20353;-86
2022/04/26 15:21:10;;;;;;;2.83;1.10;;;23.70;99.90;;;;;;5036416;28;20269;-83
2022/04/26 15:23:38;;;;;;;3.80;1.30;;;23.70;99.90;;;;;;5032737;28;20305;-85
2022/04/26 15:26:08;;;;;;;1.02;0.90;;;23.70;99.90;;;;;;5032485;28;20207;-78
2022/04/26 15:28:35;;;;;;;1.30;1.20;;;23.60;99.90;;;;;;5026313;28;20210;-81
2022/04/26 15:31:03;;;;;;;0.90;0.90;;;23.50;99.90;;;;;;5031911;28;20254;-76
2022/04/26 15:33:30;;;;;;;1.65;1.02;;;23.50;99.90;;;;;;5032402;28;20600;-76
2022/04/26 15:35:58;;;;;;;1.20;0.85;;;23.60;99.90;;;;;;5032916;28;20219;-77
2022/04/26 15:38:27;;;;;;;1.30;1.17;;;23.50;99.90;;;;;;5030431;28;20253;-77
2022/04/26 15:41:01;;;;;;;2.35;1.23;;;23.60;99.90;;;;;;5029404;28;20208;-79
2022/04/26 15:43:29;;;;;;;3.35;0.90;;;23.60;99.90;;;;;;5024557;28;20722;-79
2022/04/26 15:45:57;;;;;;;2.00;1.80;;;23.50;99.90;;;;;;5032076;28;20682;-77
2022/04/26 15:48:24;;;;;;;1.50;0.73;;;23.50;99.90;;;;;;5030896;28;20210;-77
2022/04/26 15:50:51;;;;;;;3.38;0.90;;;23.50;99.90;;;;;;5032399;28;20234;-79
2022/04/26 15:53:19;;;;;;;1.67;1.30;;;23.50;99.90;;;;;;5030400;28;20318;-79
2022/04/26 15:55:46;;;;;;;1.83;1.05;;;23.60;99.90;;;;;;5032078;28;20645;-76
2022/04/26 15:58:14;;;;;;;0.95;0.85;;;23.60;99.90;;;;;;5031577;28;20293;-77
2022/04/26 16:00:43;;;;;;;3.25;1.13;;;23.40;99.90;;;;;;5031516;28;20257;-77
2022/04/26 16:03:10;;;;;;;1.27;0.93;;;23.30;99.90;;;;;;5031415;28;20718;-82
2022/04/26 16:05:37;;;;;;;1.15;0.82;;;23.30;99.90;;;;;;5031940;28;20687;-77
2022/04/26 16:08:05;;;;;;;2.50;1.17;;;23.30;99.90;;;;;;5031688;28;20239;-78
2022/04/26 16:21:31;;;;;;;1.33;1.00;;;23.10;99.90;;;;;;5031456;28;20219;-80
2022/04/26 16:24:00;;;;;;;2.55;0.98;;;23.20;99.90;;;;;;5031969;28;20250;-81
2022/04/26 16:26:27;;;;;;;1.25;0.88;;;23.10;99.90;;;;;;5030564;28;20207;-76
2022/04/26 16:28:56;;;;;;;1.48;1.38;;;23.00;99.90;;;;;;5031088;28;20207;-77
2022/04/26 16:31:28;;;;;;;2.33;1.30;;;23.00;99.90;;;;;;5031344;28;20257;-78
2022/04/26 16:33:55;;;;;;;2.33;1.20;;;23.10;99.90;;;;;;5023919;28;20207;-79
2022/04/26 16:36:23;;;;;;;1.90;1.73;;;23.00;99.90;;;;;;5031026;28;20314;-78
2022/04/26 16:38:50;;;;;;;1.67;1.02;;;23.00;99.90;;;;;;5030798;28;20211;-77
2022/04/26 16:41:17;;;;;;;2.10;1.23;;;23.00;99.90;;;;;;5029296;28;20235;-78
2022/04/26 16:43:44;;;;;;;1.10;1.00;;;22.90;99.90;;;;;;5029975;28;20235;-77
2022/04/26 16:46:15;;;;;;;2.08;1.83;;;22.90;99.90;;;;;;5022471;28;20250;-78
2022/04/26 16:48:42;;;;;;;1.00;0.90;;;23.00;99.90;;;;;;5029827;28;20682;-77
2022/04/26 16:51:09;;;;;;;1.98;0.90;;;22.80;99.90;;;;;;5028238;28;20934;-76
2022/04/26 16:53:36;;;;;;;3.85;1.23;;;22.70;99.90;;;;;;5027609;28;20632;-78
2022/04/26 16:56:04;;;;;;;0.80;0.80;;;22.60;99.90;;;;;;5028754;28;20210;-78
2022/04/26 16:58:31;;;;;;;1.63;1.00;;;22.60;99.90;;;;;;5030164;28;20231;-78
2022/04/26 17:00:58;;;;;;;1.67;1.55;;;22.60;99.90;;;;;;5027508;28;20683;-78
2022/04/26 17:03:27;;;;;;;2.60;1.08;;;22.50;99.90;;;;;;5029342;28;20296;-81
2022/04/26 17:05:54;;;;;;;2.05;1.20;;;22.50;99.90;;;;;;5030496;28;20629;-77
2022/04/26 17:08:21;;;;;;;1.90;0.98;;;22.50;99.90;;;;;;5029662;28;20216;-77
2022/04/26 17:10:50;;;;;;;2.35;1.08;;;22.50;99.90;;;;;;5030730;28;20281;-80
2022/04/26 17:13:18;;;;;;;3.53;1.33;;;22.40;99.90;;;;;;5029680;28;20207;-77
2022/04/26 17:15:46;;;;;;;1.50;1.05;;;22.40;99.90;;;;;;5030675;28;20211;-75
2022/04/26 17:18:14;;;;;;;2.55;1.55;;;22.40;99.90;;;;;;5027211;28;20207;-78
2022/04/26 17:20:43;;;;;;;2.08;1.15;;;22.30;99.90;;;;;;5030332;28;20302;-81